Terminal Aerodrome Forecast
Issued by NWS Austin/San Antonio, TX

Home | Current Version | Previous Version | Text Only | Print | Product List | Glossary On
Versions: 1 2 3 4 5 6 7 8 9 10 11 12 13 14 15 16 17 18 19
000
FTUS44 KEWX 100522
TAFSAT
TAF
KSAT 100522Z 1006/1112 03006KT P6SM BKN070
     FM101300 08003KT P6SM BKN025
     FM101800 15005KT P6SM OVC015
     FM102300 14006KT 6SM BR VCSH OVC009
     FM110300 11003KT 3SM BR VCSH OVC005=

USA.gov is the U.S. government's official web portal to all federal, state and local government web resources and services.